עמוד ראשי
METAR-TAF:

METAR-TAF

שדות תעופה :

Antofagasta, צ'ילה

קו רוחב: 23-26S, קו אורך: 070-26W, גובה: 135מטר

תצפית מזג אוויר נוכחית

הדו"ח נערך לפני 23דקות, בשעה 00:00 UTC
רוח 13קשר מכיוון דרום/דרום-מערב
טמפרטורת 15 צלסיוס
לחות 82%
לחץ 1017 hPa
ראות 10 קילומטר או יותר
מעונן בגובה 1100רגל

METAR: SCFA 160000Z 21013KT 9999 OVC011 15/12 Q1017 NOSIG

זמן: 20:23 (00:23 UTC)

תחזית

הדו"ח נערך לפני 2 שעות ו 18דקות, בשעה 22:05 UTC
תחזית בתוקף מ 16 ב 00 UTC עד 16 ב 24 UTC
רוח 10קשר מכיוון דרום
ראות 10 קילומטר או יותר
מעונן בגובה 1000רגל
זמנית מ -
16 ב 00 UTC עד 16 ב 04 UTC
ראות: 5000מטר
עננים פזורים בגובה 500רגל
מעונן בגובה 800רגל
טפטוף קל
יעשה מ
16 ב 16 UTC עד 16 ב 18 UTC
עננים פזורים בגובה 1500רגל
יעשה מ
16 ב 20 UTC עד 16 ב 22 UTC
ראות: 4000מטר
עננים בינוניים בגובה 500רגל
מעונן בגובה 800רגל
טפטוף קל,

TAF: SCFA 152205Z 1600/1624 19010KT 9999 OVC010 TN14/1610Z TX17/1618Z TEMPO 1600/1604 5000 -DZ SCT005 OVC008 BECMG 1616/1618 SCT015 BECMG 1620/1622 4000 -DZ BKN005 OVC008

תצפיות ותחזיות מזג אוויר לגבי יותר מ- 4,000 שדות תעופה ברחבי העולם. דוחות METAR ו- TAF.

התחנות הזמינות מסומנות בנקודות צהובות ואדומות על גבי המפה.

העבר את העכבר לנקודה הצבעונית על מנת לראות את שם התחנה.

לאחר מכן, לחץ כדי לראות את תוכן ואת תחזיות מזג האוויר.

כדי לשנות את המפה: לחץ על הכפתורים הירוקים עם הפלוס השחור כדי להתקרב; על הכפתור הירוק עם המקף כדי להתרחק; או בחיצים הירוקים למפות סמוכות.


METAR-TAF: